Time;durP1;ratioP1;P1;durP2;ratioP2;P2;SDS_P1;SDS_P2;PMS_P1;PMS_P2;Temp;Humidity;BMP_temperature;BMP_pressure;BME280_temperature;BME280_humidity;BME280_pressure;Samples;Min_cycle;Max_cycle;Signal;HPM_P1;HPM_P2
2022/11/03 00:01:38;;;;;;;;;;;;;;;;;;5081234;28;1116;-79
2022/11/03 00:04:04;;;;;;;;;;;;;;;;;;5088809;28;1151;-79
2022/11/03 00:06:30;;;;;;;;;;;;;;;;;;5086605;28;1143;-81
2022/11/03 00:08:57;;;;;;;;;;;;;;;;;;5076036;28;1918;-81
2022/11/03 00:11:23;;;;;;;;;;;;;;;;;;5057314;28;1436;-80
2022/11/03 00:13:49;;;;;;;;;;;;;;;;;;5059200;28;1250;-81
2022/11/03 00:16:16;;;;;;;;;;;;;;;;;;5085765;28;1075;-79
2022/11/03 00:18:43;;;;;;;;;;;;;;;;;;5090806;28;1426;-81
2022/11/03 00:21:10;;;;;;;;;;;;;;;;;;5090893;28;1091;-79
2022/11/03 00:23:37;;;;;;;;;;;;;;;;;;5081016;28;1029;-81
2022/11/03 00:26:07;;;;;;;;;;;;;;;;;;5075695;28;997;-79
2022/11/03 00:28:33;;;;;;;;;;;;;;;;;;5075522;28;1968;-80
2022/11/03 00:31:00;;;;;;;;;;;;;;;;;;5075619;28;1108;-79
2022/11/03 00:33:26;;;;;;;;;;;;;;;;;;5056321;28;1315;-79
2022/11/03 00:35:57;;;;;;;;;;;;;;;;;;5076281;28;878;-80
2022/11/03 00:38:24;;;;;;;;;;;;;;;;;;5041085;28;987162;-80
2022/11/03 00:40:52;;;;;;;;;;;;;;;;;;5076320;28;1012;-79
2022/11/03 00:43:18;;;;;;;;;;;;;;;;;;5057972;28;1210;-80
2022/11/03 00:45:45;;;;;;;;;;;;;;;;;;5077036;28;1170;-80
2022/11/03 00:48:29;;;;;;;;;;;;;;;;;;5076774;28;1278;-80
2022/11/03 00:51:01;;;;;;;;;;;;;;;;;;5076897;28;1910;-80
2022/11/03 00:53:27;;;;;;;;;;;;;;;;;;5075954;28;740;-80
2022/11/03 00:55:53;;;;;;;;;;;;;;;;;;5077078;28;977;-80
2022/11/03 00:58:19;;;;;;;;;;;;;;;;;;5076625;28;1295;-80
2022/11/03 01:00:45;;;;;;;;;;;;;;;;;;5076670;28;1047;-80
2022/11/03 01:03:12;;;;;;;;;;;;;;;;;;5057883;28;1446;-80
2022/11/03 01:08:25;;;;;;;;;;;;;;;;;;5077034;28;1317;-79
2022/11/03 01:13:31;;;;;;;;;;;;;;;;;;5066558;28;1239;-79
2022/11/03 01:15:58;;;;;;;;;;;;;;;;;;5065918;28;1142;-80
2022/11/03 01:18:24;;;;;;;;;;;;;;;;;;5075461;28;1262;-80
2022/11/03 01:20:53;;;;;;;;;;;;;;;;;;5076039;28;1059;-80
2022/11/03 01:23:20;;;;;;;;;;;;;;;;;;5074866;28;1148;-80
2022/11/03 01:25:47;;;;;;;;;;;;;;;;;;5076708;28;941;-80
2022/11/03 01:28:13;;;;;;;;;;;;;;;;;;5075804;28;1429;-80
2022/11/03 01:30:40;;;;;;;;;;;;;;;;;;5075651;28;1913;-80
2022/11/03 01:33:06;;;;;;;;;;;;;;;;;;5075389;28;1083;-80
2022/11/03 01:35:32;;;;;;;;;;;;;;;;;;5079504;28;1080;-80
2022/11/03 01:37:58;;;;;;;;;;;;;;;;;;5078826;28;1006;-81
2022/11/03 01:40:24;;;;;;;;;;;;;;;;;;5061416;28;1401;-81
2022/11/03 01:42:52;;;;;;;;;;;;;;;;;;5078702;28;787;-81
2022/11/03 01:45:18;;;;;;;;;;;;;;;;;;5079004;28;1099;-81
2022/11/03 01:47:44;;;;;;;;;;;;;;;;;;5079004;28;998;-82
2022/11/03 01:50:11;;;;;;;;;;;;;;;;;;5078680;28;1906;-82
2022/11/03 01:52:38;;;;;;;;;;;;;;;;;;5078754;28;882;-81
2022/11/03 01:55:06;;;;;;;;;;;;;;;;;;5079532;28;1091;-81
2022/11/03 01:57:34;;;;;;;;;;;;;;;;;;5079394;28;1055;-82
2022/11/03 02:00:01;;;;;;;;;;;;;;;;;;5060682;28;1285;-81
2022/11/03 02:02:27;;;;;;;;;;;;;;;;;;5078695;28;1095;-82
2022/11/03 02:04:54;;;;;;;;;;;;;;;;;;5078607;28;1068;-81
2022/11/03 02:07:22;;;;;;;;;;;;;;;;;;5078624;28;1143;-82
2022/11/03 02:09:48;;;;;;;;;;;;;;;;;;5078355;28;1967;-82
2022/11/03 02:12:14;;;;;;;;;;;;;;;;;;5059701;28;1522;-82
2022/11/03 02:14:42;;;;;;;;;;;;;;;;;;5078803;28;1108;-82
2022/11/03 02:17:11;;;;;;;;;;;;;;;;;;5079138;28;1113;-82
2022/11/03 02:19:38;;;;;;;;;;;;;;;;;;5078762;28;1397;-82
2022/11/03 02:22:06;;;;;;;;;;;;;;;;;;5078171;28;1052;-82
2022/11/03 02:24:34;;;;;;;;;;;;;;;;;;5078799;28;1100;-82
2022/11/03 02:27:02;;;;;;;;;;;;;;;;;;5060759;28;1172;-81
2022/11/03 02:29:28;;;;;;;;;;;;;;;;;;5078888;28;1961;-82
2022/11/03 02:31:56;;;;;;;;;;;;;;;;;;5077961;28;1091;-82
2022/11/03 02:34:23;;;;;;;;;;;;;;;;;;5079237;28;1079;-81
2022/11/03 02:36:49;;;;;;;;;;;;;;;;;;5079231;28;1067;-79
2022/11/03 02:39:16;;;;;;;;;;;;;;;;;;5079701;28;1384;-81
2022/11/03 02:41:42;;;;;;;;;;;;;;;;;;5078258;28;1194;-81
2022/11/03 02:44:12;;;;;;;;;;;;;;;;;;5079133;28;831;-82
2022/11/03 02:46:38;;;;;;;;;;;;;;;;;;5079364;28;1071;-82
2022/11/03 02:49:04;;;;;;;;;;;;;;;;;;5079333;28;1409;-81
2022/11/03 02:51:30;;;;;;;;;;;;;;;;;;5077286;28;1976;-81
2022/11/03 02:54:00;;;;;;;;;;;;;;;;;;5079478;28;837;-81
2022/11/03 02:56:27;;;;;;;;;;;;;;;;;;5061770;28;1256;-81
2022/11/03 02:58:54;;;;;;;;;;;;;;;;;;5083114;28;2005;-81
2022/11/03 03:01:23;;;;;;;;;;;;;;;;;;5080088;28;2091;-80
2022/11/03 03:03:50;;;;;;;;;;;;;;;;;;5077038;28;2548;-79
2022/11/03 03:06:17;;;;;;;;;;;;;;;;;;5081830;28;1739;-80
2022/11/03 03:08:43;;;;;;;;;;;;;;;;;;5078544;28;1836;-80
2022/11/03 03:11:10;;;;;;;;;;;;;;;;;;5082602;28;1950;-80
2022/11/03 03:13:36;;;;;;;;;;;;;;;;;;5060657;28;2119;-80
2022/11/03 03:16:06;;;;;;;;;;;;;;;;;;5081465;28;2079;-78
2022/11/03 03:18:37;;;;;;;;;;;;;;;;;;5074010;28;2032;-80
2022/11/03 03:21:04;;;;;;;;;;;;;;;;;;5074807;28;2040;-80
2022/11/03 03:23:31;;;;;;;;;;;;;;;;;;5074200;28;2084;-80
2022/11/03 03:25:59;;;;;;;;;;;;;;;;;;5071038;28;1810;-80
2022/11/03 03:28:26;;;;;;;;;;;;;;;;;;5075526;28;2048;-80
2022/11/03 03:30:52;;;;;;;;;;;;;;;;;;5069060;28;1985;-81
2022/11/03 03:33:18;;;;;;;;;;;;;;;;;;5068820;28;1700;-80
2022/11/03 03:35:46;;;;;;;;;;;;;;;;;;5092627;28;1178;-80
2022/11/03 03:38:13;;;;;;;;;;;;;;;;;;5090462;28;1297;-81
2022/11/03 03:40:40;;;;;;;;;;;;;;;;;;5071590;22;3474;-74
2022/11/03 03:43:06;;;;;;;;;;;;;;;;;;5071893;28;1097;-74
2022/11/03 03:45:33;;;;;;;;;;;;;;;;;;5054750;28;1182;-74
2022/11/03 03:47:59;;;;;;;;;;;;;;;;;;5072309;28;763;-74
2022/11/03 03:50:26;;;;;;;;;;;;;;;;;;5063634;28;1981;-74
2022/11/03 03:52:55;;;;;;;;;;;;;;;;;;5051673;28;1178;-73
2022/11/03 03:55:22;;;;;;;;;;;;;;;;;;5052593;28;1008;-74
2022/11/03 03:57:48;;;;;;;;;;;;;;;;;;5051231;28;1165;-74
2022/11/03 04:00:15;;;;;;;;;;;;;;;;;;5052074;28;1296;-72
2022/11/03 04:02:41;;;;;;;;;;;;;;;;;;5051567;28;1131;-74
2022/11/03 04:05:07;;;;;;;;;;;;;;;;;;5052300;28;1083;-74
2022/11/03 04:07:48;;;;;;;;;;;;;;;;;;5052273;28;1072;-74
2022/11/03 04:10:16;;;;;;;;;;;;;;;;;;5051815;28;1918;-73
2022/11/03 04:23:38;;;;;;;;;;;;;;;;;;5033771;28;1427;-74
2022/11/03 04:26:06;;;;;;;;;;;;;;;;;;5043554;28;1256;-74
2022/11/03 04:28:32;;;;;;;;;;;;;;;;;;5050053;28;1392;-74
2022/11/03 04:30:58;;;;;;;;;;;;;;;;;;5033389;28;1910;-74
2022/11/03 04:33:24;;;;;;;;;;;;;;;;;;5039205;28;1387;-74
2022/11/03 04:35:51;;;;;;;;;;;;;;;;;;5050488;28;1422;-74
2022/11/03 04:38:21;;;;;;;;;;;;;;;;;;5031012;28;1193;-74
2022/11/03 04:40:48;;;;;;;;;;;;;;;;;;5042528;28;1462;-76
2022/11/03 04:43:17;;;;;;;;;;;;;;;;;;5050315;28;1427;-76
2022/11/03 04:45:44;;;;;;;;;;;;;;;;;;5037056;28;1192;-76
2022/11/03 04:48:11;;;;;;;;;;;;;;;;;;5036191;28;1466;-75
2022/11/03 04:50:37;;;;;;;;;;;;;;;;;;5048728;28;1937;-76
2022/11/03 04:53:05;;;;;;;;;;;;;;;;;;5040301;28;1146;-74
2022/11/03 04:55:32;;;;;;;;;;;;;;;;;;5034055;28;1406;-75
2022/11/03 04:57:58;;;;;;;;;;;;;;;;;;5047192;28;1423;-75
2022/11/03 05:00:26;;;;;;;;;;;;;;;;;;5054950;28;1482;-74
2022/11/03 05:02:52;;;;;;;;;;;;;;;;;;5046104;28;1357;-74
2022/11/03 05:05:19;;;;;;;;;;;;;;;;;;5040180;28;1374;-75
2022/11/03 05:07:45;;;;;;;;;;;;;;;;;;5050327;28;1390;-75
2022/11/03 05:10:12;;;;;;;;;;;;;;;;;;5043924;28;2244;-75
2022/11/03 05:12:38;;;;;;;;;;;;;;;;;;5046230;28;1091;-75
2022/11/03 05:15:07;;;;;;;;;;;;;;;;;;5047336;28;1183;-74
2022/11/03 05:17:34;;;;;;;;;;;;;;;;;;5054148;28;957;-75
2022/11/03 05:20:02;;;;;;;;;;;;;;;;;;5051577;28;1307;-75
2022/11/03 05:22:29;;;;;;;;;;;;;;;;;;5050481;28;1214;-75
2022/11/03 05:24:56;;;;;;;;;;;;;;;;;;5053819;28;1295;-75
2022/11/03 05:27:22;;;;;;;;;;;;;;;;;;5054925;28;981;-75
2022/11/03 05:29:48;;;;;;;;;;;;;;;;;;5049466;28;1446;-75
2022/11/03 05:32:15;;;;;;;;;;;;;;;;;;5034618;28;1906;-75
2022/11/03 05:34:42;;;;;;;;;;;;;;;;;;5034780;28;905;-74
2022/11/03 05:37:13;;;;;;;;;;;;;;;;;;5041163;28;1144;-74
2022/11/03 05:39:40;;;;;;;;;;;;;;;;;;5053249;28;1283;-75
2022/11/03 05:42:15;;;;;;;;;;;;;;;;;;5052935;28;1483;-75
2022/11/03 05:44:41;;;;;;;;;;;;;;;;;;5053204;28;1257;-74
2022/11/03 05:47:08;;;;;;;;;;;;;;;;;;5054685;28;771;-73
2022/11/03 05:49:35;;;;;;;;;;;;;;;;;;5054500;28;1381;-74
2022/11/03 05:52:02;;;;;;;;;;;;;;;;;;5052418;28;1977;-74
2022/11/03 05:54:29;;;;;;;;;;;;;;;;;;5055011;28;787;-74
2022/11/03 05:56:55;;;;;;;;;;;;;;;;;;5054359;28;1111;-73
2022/11/03 05:59:23;;;;;;;;;;;;;;;;;;5053637;28;2158;-74
2022/11/03 06:01:49;;;;;;;;;;;;;;;;;;5043820;28;1450;-75
2022/11/03 06:04:18;;;;;;;;;;;;;;;;;;5054244;28;926;-75
2022/11/03 06:06:44;;;;;;;;;;;;;;;;;;5053995;28;1116;-75
2022/11/03 06:09:13;;;;;;;;;;;;;;;;;;5053679;28;1495;-73
2022/11/03 06:11:39;;;;;;;;;;;;;;;;;;5052649;28;1981;-76
2022/11/03 06:14:08;;;;;;;;;;;;;;;;;;5054029;28;846;-74
2022/11/03 06:16:37;;;;;;;;;;;;;;;;;;5053887;28;779;-74
2022/11/03 06:19:07;;;;;;;;;;;;;;;;;;5052785;28;1091;-75
2022/11/03 06:21:33;;;;;;;;;;;;;;;;;;5049984;28;1336;-74
2022/11/03 06:23:59;;;;;;;;;;;;;;;;;;5053793;28;948;-75
2022/11/03 06:26:27;;;;;;;;;;;;;;;;;;5053839;28;1079;-74
2022/11/03 06:28:53;;;;;;;;;;;;;;;;;;5053935;28;957;-73
2022/11/03 06:31:21;;;;;;;;;;;;;;;;;;5051582;28;1902;-73
2022/11/03 06:33:48;;;;;;;;;;;;;;;;;;5048054;28;1276;-75
2022/11/03 06:36:15;;;;;;;;;;;;;;;;;;5051088;28;1241;-75
2022/11/03 06:38:41;;;;;;;;;;;;;;;;;;5053032;28;933;-75
2022/11/03 06:41:08;;;;;;;;;;;;;;;;;;5051945;28;1316;-75
2022/11/03 06:43:37;;;;;;;;;;;;;;;;;;5051062;28;1267;-74
2022/11/03 06:46:05;;;;;;;;;;;;;;;;;;5050758;28;1111;-75
2022/11/03 06:48:33;;;;;;;;;;;;;;;;;;5053914;28;1067;-75
2022/11/03 06:50:59;;;;;;;;;;;;;;;;;;5053657;28;1973;-75
2022/11/03 06:53:26;;;;;;;;;;;;;;;;;;5047738;28;2100;-74
2022/11/03 06:55:52;;;;;;;;;;;;;;;;;;5033387;28;1113;-75
2022/11/03 06:58:21;;;;;;;;;;;;;;;;;;5029356;28;929;-75
2022/11/03 07:00:49;;;;;;;;;;;;;;;;;;5027038;28;1286;-74
2022/11/03 07:03:16;;;;;;;;;;;;;;;;;;5029562;28;829;-75
2022/11/03 07:05:43;;;;;;;;;;;;;;;;;;5032476;28;1107;-75
2022/11/03 07:08:13;;;;;;;;;;;;;;;;;;5028458;28;1068;-75
2022/11/03 07:10:39;;;;;;;;;;;;;;;;;;5028567;28;1902;-75
2022/11/03 07:13:06;;;;;;;;;;;;;;;;;;5029736;28;1154;-75
2022/11/03 07:15:33;;;;;;;;;;;;;;;;;;5031414;28;756;-75
2022/11/03 07:18:01;;;;;;;;;;;;;;;;;;5033190;28;928;-76
2022/11/03 07:20:27;;;;;;;;;;;;;;;;;;5033201;28;1285;-75
2022/11/03 07:22:54;;;;;;;;;;;;;;;;;;5031397;28;771;-73
2022/11/03 07:25:20;;;;;;;;;;;;;;;;;;5033135;28;1064;-75
2022/11/03 07:27:47;;;;;;;;;;;;;;;;;;5033137;28;1119;-75
2022/11/03 07:30:16;;;;;;;;;;;;;;;;;;5032488;28;1274;-74
2022/11/03 07:32:42;;;;;;;;;;;;;;;;;;5032069;28;1914;-75
2022/11/03 07:35:15;;;;;;;;;;;;;;;;;;5033001;28;1166;-75
2022/11/03 07:37:41;;;;;;;;;;;;;;;;;;5032968;28;1111;-76
2022/11/03 07:40:11;;;;;;;;;;;;;;;;;;5032328;28;1298;-77
2022/11/03 07:42:38;;;;;;;;;;;;;;;;;;5032164;28;772;-76
2022/11/03 07:45:07;;;;;;;;;;;;;;;;;;5031488;28;1281;-75
2022/11/03 07:47:34;;;;;;;;;;;;;;;;;;5031609;28;1163;-76
2022/11/03 07:50:00;;;;;;;;;;;;;;;;;;5032088;28;1298;-75
2022/11/03 07:52:27;;;;;;;;;;;;;;;;;;5028885;28;1911;-75
2022/11/03 07:54:55;;;;;;;;;;;;;;;;;;5028625;28;1000;-75
2022/11/03 07:57:22;;;;;;;;;;;;;;;;;;5029254;28;819;-76
2022/11/03 07:59:49;;;;;;;;;;;;;;;;;;5029874;28;1404;-75
2022/11/03 08:02:20;;;;;;;;;;;;;;;;;;5028473;28;1076;-76
2022/11/03 08:04:46;;;;;;;;;;;;;;;;;;5041523;28;1475;-75
2022/11/03 08:07:13;;;;;;;;;;;;;;;;;;5051541;28;1079;-76
2022/11/03 08:09:40;;;;;;;;;;;;;;;;;;5051343;28;1363;-75
2022/11/03 08:12:06;;;;;;;;;;;;;;;;;;5050255;28;1998;-75
2022/11/03 08:14:33;;;;;;;;;;;;;;;;;;5051241;28;1044;-75
2022/11/03 08:16:59;;;;;;;;;;;;;;;;;;5051143;28;940;-75
2022/11/03 08:19:25;;;;;;;;;;;;;;;;;;5051773;28;1079;-75
2022/11/03 08:21:51;;;;;;;;;;;;;;;;;;5051190;28;917;-76
2022/11/03 08:24:17;;;;;;;;;;;;;;;;;;5052376;28;1146;-76
2022/11/03 08:26:45;;;;;;;;;;;;;;;;;;5052341;28;770;-75
2022/11/03 08:29:11;;;;;;;;;;;;;;;;;;5052315;28;1057;-76
2022/11/03 08:31:37;;;;;;;;;;;;;;;;;;5051382;28;1899;-77
2022/11/03 08:34:03;;;;;;;;;;;;;;;;;;5052126;28;1071;-77
2022/11/03 08:36:30;;;;;;;;;;;;;;;;;;5052157;28;1083;-76
2022/11/03 08:38:56;;;;;;;;;;;;;;;;;;5051956;28;1052;-76
2022/11/03 08:41:22;;;;;;;;;;;;;;;;;;5049888;28;1467;-75
2022/11/03 08:43:49;;;;;;;;;;;;;;;;;;5053434;28;1059;-76
2022/11/03 08:46:16;;;;;;;;;;;;;;;;;;5056450;28;1114;-75
2022/11/03 08:48:42;;;;;;;;;;;;;;;;;;5054911;28;1282;-75
2022/11/03 08:51:12;;;;;;;;;;;;;;;;;;5056086;28;1906;-75
2022/11/03 08:53:38;;;;;;;;;;;;;;;;;;5055421;28;1076;-75
2022/11/03 08:56:05;;;;;;;;;;;;;;;;;;5056122;28;1123;-76
2022/11/03 08:58:31;;;;;;;;;;;;;;;;;;5055902;28;893;-75
2022/11/03 09:00:58;;;;;;;;;;;;;;;;;;5055948;28;1300;-75
2022/11/03 09:03:25;;;;;;;;;;;;;;;;;;5055141;28;943;-75
2022/11/03 09:05:51;;;;;;;;;;;;;;;;;;5056145;28;1138;-75
2022/11/03 09:08:17;;;;;;;;;;;;;;;;;;5056144;28;788;-75
2022/11/03 09:10:43;;;;;;;;;;;;;;;;;;5055784;28;1286;-76
2022/11/03 09:13:09;;;;;;;;;;;;;;;;;;5055001;28;1954;-75
2022/11/03 09:15:35;;;;;;;;;;;;;;;;;;5055598;28;1063;-75
2022/11/03 09:18:03;;;;;;;;;;;;;;;;;;5055471;28;857;-75
2022/11/03 09:20:29;;;;;;;;;;;;;;;;;;5055265;28;1355;-76
2022/11/03 09:22:55;;;;;;;;;;;;;;;;;;5054244;28;921;-75
2022/11/03 09:25:22;;;;;;;;;;;;;;;;;;5055630;28;1127;-75
2022/11/03 09:27:48;;;;;;;;;;;;;;;;;;5055255;28;1063;-76
2022/11/03 09:30:14;;;;;;;;;;;;;;;;;;5051768;28;1309;-75
2022/11/03 09:32:41;;;;;;;;;;;;;;;;;;5050140;28;1934;-75
2022/11/03 09:35:08;;;;;;;;;;;;;;;;;;5050159;28;1459;-76
2022/11/03 09:37:35;;;;;;;;;;;;;;;;;;5051262;28;1095;-76
2022/11/03 09:40:02;;;;;;;;;;;;;;;;;;5049512;28;1340;-74
2022/11/03 09:42:29;;;;;;;;;;;;;;;;;;5050578;28;878;-77
2022/11/03 09:44:55;;;;;;;;;;;;;;;;;;5079745;22;3718;-80
2022/11/03 09:47:23;;;;;;;;;;;;;;;;;;5076471;28;1120;-79
2022/11/03 09:49:49;;;;;;;;;;;;;;;;;;5078568;28;1088;-79
2022/11/03 09:52:17;;;;;;;;;;;;;;;;;;5074374;28;1906;-81
2022/11/03 09:54:44;;;;;;;;;;;;;;;;;;5073890;28;1293;-81
2022/11/03 09:57:11;;;;;;;;;;;;;;;;;;5075325;28;1083;-80
2022/11/03 09:59:37;;;;;;;;;;;;;;;;;;5057053;28;1110;-80
2022/11/03 10:02:05;;;;;;;;;;;;;;;;;;5074283;28;1086;-79
2022/11/03 10:04:31;;;;;;;;;;;;;;;;;;5076605;28;1320;-80
2022/11/03 10:06:58;;;;;;;;;;;;;;;;;;5074328;28;1138;-80
2022/11/03 10:09:25;;;;;;;;;;;;;;;;;;5059037;28;1183;-81
2022/11/03 10:11:52;;;;;;;;;;;;;;;;;;5076300;28;1918;-80
2022/11/03 10:14:18;;;;;;;;;;;;;;;;;;5077332;28;1455;-81
2022/11/03 10:16:45;;;;;;;;;;;;;;;;;;5058680;28;1391;-81
2022/11/03 10:19:12;;;;;;;;;;;;;;;;;;5075075;28;1075;-81
2022/11/03 10:21:38;;;;;;;;;;;;;;;;;;5073486;28;1084;-81
2022/11/03 10:24:04;;;;;;;;;;;;;;;;;;5074788;28;1084;-80
2022/11/03 10:26:36;;;;;;;;;;;;;;;;;;5073261;28;1310;-81
2022/11/03 10:29:04;;;;;;;;;;;;;;;;;;5076712;28;1125;-80
2022/11/03 10:31:34;;;;;;;;;;;;;;;;;;5081178;28;945;-78
2022/11/03 10:34:00;;;;;;;;;;;;;;;;;;5084259;28;1136;-79
2022/11/03 10:36:27;;;;;;;;;;;;;;;;;;5077743;28;1387;-78
2022/11/03 10:38:54;;;;;;;;;;;;;;;;;;5078836;28;1076;-79
2022/11/03 10:41:20;;;;;;;;;;;;;;;;;;5076564;28;1051;-81
2022/11/03 10:44:00;;;;;;;;;;;;;;;;;;5077908;28;1071;-81
2022/11/03 10:46:26;;;;;;;;;;;;;;;;;;5059189;28;1482;-82
2022/11/03 10:49:01;;;;;;;;;;;;;;;;;;5059022;28;1195;-80
2022/11/03 10:51:27;;;;;;;;;;;;;;;;;;5076432;28;929;-81
2022/11/03 10:53:54;;;;;;;;;;;;;;;;;;5076951;28;1910;-80
2022/11/03 10:56:20;;;;;;;;;;;;;;;;;;5075598;28;1286;-81
2022/11/03 10:58:46;;;;;;;;;;;;;;;;;;5076970;28;912;-82
2022/11/03 11:01:13;;;;;;;;;;;;;;;;;;5077013;28;1334;-80
2022/11/03 11:03:41;;;;;;;;;;;;;;;;;;5077417;28;1039;-80
2022/11/03 11:06:15;;;;;;;;;;;;;;;;;;5075800;28;1302;-80
2022/11/03 11:08:41;;;;;;;;;;;;;;;;;;5073483;28;882;-81
2022/11/03 11:11:07;;;;;;;;;;;;;;;;;;5074152;28;1060;-80
2022/11/03 11:13:33;;;;;;;;;;;;;;;;;;5073170;28;1981;-81
2022/11/03 11:16:00;;;;;;;;;;;;;;;;;;5075381;28;1375;-81
2022/11/03 11:18:53;;;;;;;;;;;;;;;;;;5074075;28;1075;-81
2022/11/03 11:21:38;;;;;;;;;;;;;;;;;;5036502;28;1293;-78
2022/11/03 11:24:06;;;;;;;;;;;;;;;;;;5077267;28;783;-81
2022/11/03 11:26:33;;;;;;;;;;;;;;;;;;5076633;28;1385;-82
2022/11/03 11:29:19;;;;;;;;;;;;;;;;;;5076071;28;779;-80
2022/11/03 11:31:45;;;;;;;;;;;;;;;;;;5073960;28;787;-79
2022/11/03 11:34:32;;;;;;;;;;;;;;;;;;5073935;28;1972;-79
2022/11/03 11:37:16;;;;;;;;;;;;;;;;;;5072551;28;1605;-79
2022/11/03 11:39:47;;;;;;;;;;;;;;;;;;5072699;28;1139;-80
2022/11/03 11:42:13;;;;;;;;;;;;;;;;;;5073205;28;756;-79
2022/11/03 11:44:39;;;;;;;;;;;;;;;;;;5083310;28;1385;-79
2022/11/03 11:47:17;;;;;;;;;;;;;;;;;;5082269;28;1059;-79
2022/11/03 11:49:44;;;;;;;;;;;;;;;;;;5081748;28;1055;-81
2022/11/03 11:52:10;;;;;;;;;;;;;;;;;;5080631;28;1913;-79
2022/11/03 11:54:36;;;;;;;;;;;;;;;;;;5080166;28;1412;-79
2022/11/03 11:57:03;;;;;;;;;;;;;;;;;;5079578;28;894;-81
2022/11/03 11:59:30;;;;;;;;;;;;;;;;;;5076761;28;1397;-81
2022/11/03 12:01:56;;;;;;;;;;;;;;;;;;5058674;28;1152;-80
2022/11/03 12:04:24;;;;;;;;;;;;;;;;;;5077237;28;1036;-82
2022/11/03 12:06:50;;;;;;;;;;;;;;;;;;5058682;28;1489;-82
2022/11/03 12:09:17;;;;;;;;;;;;;;;;;;5078053;28;1071;-82
2022/11/03 12:11:44;;;;;;;;;;;;;;;;;;5076413;28;831;-82
2022/11/03 12:14:22;;;;;;;;;;;;;;;;;;5076995;28;1917;-82
2022/11/03 12:16:48;;;;;;;;;;;;;;;;;;5077184;28;1296;-82
2022/11/03 12:19:34;;;;;;;;;;;;;;;;;;5088342;28;1553;-81
2022/11/03 12:22:00;;;;;;;;;;;;;;;;;;5081108;28;1158;-82
2022/11/03 12:24:27;;;;;;;;;;;;;;;;;;5077337;28;1031;-81
2022/11/03 12:26:53;;;;;;;;;;;;;;;;;;5076517;28;1075;-82
2022/11/03 12:29:19;;;;;;;;;;;;;;;;;;5076644;28;1056;-80
2022/11/03 12:31:47;;;;;;;;;;;;;;;;;;5058174;28;1195;-80
2022/11/03 12:34:14;;;;;;;;;;;;;;;;;;5076333;28;1914;-82
2022/11/03 12:36:40;;;;;;;;;;;;;;;;;;5076170;28;1288;-81
2022/11/03 12:39:06;;;;;;;;;;;;;;;;;;5076723;28;949;-81
2022/11/03 12:41:32;;;;;;;;;;;;;;;;;;5075913;28;1072;-81
2022/11/03 12:43:58;;;;;;;;;;;;;;;;;;5076443;28;834;-80
2022/11/03 12:46:24;;;;;;;;;;;;;;;;;;5076215;28;1274;-83
2022/11/03 12:48:52;;;;;;;;;;;;;;;;;;5076975;28;1306;-82
2022/11/03 12:51:19;;;;;;;;;;;;;;;;;;5075899;28;787;-82
2022/11/03 12:53:45;;;;;;;;;;;;;;;;;;5076496;28;1950;-82
2022/11/03 12:56:11;;;;;;;;;;;;;;;;;;5075786;28;1430;-82
2022/11/03 12:58:38;;;;;;;;;;;;;;;;;;5080273;28;1146;-82
2022/11/03 13:01:04;;;;;;;;;;;;;;;;;;5089537;28;1076;-81
2022/11/03 13:03:31;;;;;;;;;;;;;;;;;;5082365;28;1068;-83
2022/11/03 13:06:00;;;;;;;;;;;;;;;;;;5075982;28;1393;-83
2022/11/03 13:08:26;;;;;;;;;;;;;;;;;;5075256;28;1212;-82
2022/11/03 13:10:52;;;;;;;;;;;;;;;;;;5076086;28;1126;-83
2022/11/03 13:13:18;;;;;;;;;;;;;;;;;;5075112;28;1907;-83
2022/11/03 13:15:44;;;;;;;;;;;;;;;;;;5076653;28;1321;-82
2022/11/03 13:18:11;;;;;;;;;;;;;;;;;;5076148;28;910;-83
2022/11/03 13:20:37;;;;;;;;;;;;;;;;;;5076138;28;1059;-82
2022/11/03 13:23:05;;;;;;;;;;;;;;;;;;5075117;28;1072;-83
2022/11/03 13:25:31;;;;;;;;;;;;;;;;;;5076301;28;1238;-83
2022/11/03 13:27:57;;;;;;;;;;;;;;;;;;5076217;28;1064;-84
2022/11/03 13:30:24;;;;;;;;;;;;;;;;;;5060207;28;1266;-83
2022/11/03 13:32:50;;;;;;;;;;;;;;;;;;5060304;28;1981;-83
2022/11/03 13:35:16;;;;;;;;;;;;;;;;;;5079321;28;1376;-83
2022/11/03 13:37:43;;;;;;;;;;;;;;;;;;5078256;28;973;-82
2022/11/03 13:40:11;;;;;;;;;;;;;;;;;;5079008;28;1072;-82
2022/11/03 13:42:37;;;;;;;;;;;;;;;;;;5077849;28;1060;-83
2022/11/03 13:45:03;;;;;;;;;;;;;;;;;;5079072;28;1377;-83
2022/11/03 13:47:29;;;;;;;;;;;;;;;;;;5079666;28;787;-83
2022/11/03 13:49:56;;;;;;;;;;;;;;;;;;5079088;28;1063;-81
2022/11/03 13:52:23;;;;;;;;;;;;;;;;;;5078615;28;631;-82
2022/11/03 13:54:50;;;;;;;;;;;;;;;;;;5060675;28;1981;-81
2022/11/03 13:57:18;;;;;;;;;;;;;;;;;;5079834;28;837;-80
2022/11/03 13:59:44;;;;;;;;;;;;;;;;;;5079272;28;913;-83
2022/11/03 14:02:11;;;;;;;;;;;;;;;;;;5079127;28;901;-82
2022/11/03 14:04:37;;;;;;;;;;;;;;;;;;5082827;28;1381;-83
2022/11/03 14:07:04;;;;;;;;;;;;;;;;;;5086600;28;790;-82
2022/11/03 14:09:30;;;;;;;;;;;;;;;;;;5087671;28;1124;-83
2022/11/03 14:14:41;;;;;;;;;;;;;;;;;;5078502;28;1971;-82
2022/11/03 14:17:07;;;;;;;;;;;;;;;;;;5078735;28;1114;-81
2022/11/03 14:19:34;;;;;;;;;;;;;;;;;;5074478;28;1478;-83
2022/11/03 14:22:00;;;;;;;;;;;;;;;;;;5059977;28;1205;-83
2022/11/03 14:24:26;;;;;;;;;;;;;;;;;;5079000;28;997;-83
2022/11/03 14:26:52;;;;;;;;;;;;;;;;;;5079263;28;1336;-83
2022/11/03 14:29:18;;;;;;;;;;;;;;;;;;5076885;28;1008;-82
2022/11/03 14:31:46;;;;;;;;;;;;;;;;;;5079522;28;1139;-83
2022/11/03 14:34:12;;;;;;;;;;;;;;;;;;5079543;28;1965;-84
2022/11/03 14:36:38;;;;;;;;;;;;;;;;;;5079425;28;1297;-83
2022/11/03 14:39:04;;;;;;;;;;;;;;;;;;5060899;28;1102;-83
2022/11/03 14:44:15;;;;;;;;;;;;;;;;;;5061554;28;1236;-83
2022/11/03 14:46:41;;;;;;;;;;;;;;;;;;5093108;28;1396;-80
2022/11/03 14:49:08;;;;;;;;;;;;;;;;;;5087286;28;1077;-83
2022/11/03 14:51:35;;;;;;;;;;;;;;;;;;5078181;28;861;-83
2022/11/03 14:54:01;;;;;;;;;;;;;;;;;;5078457;28;1906;-83
2022/11/03 14:56:27;;;;;;;;;;;;;;;;;;5078480;28;1254;-83
2022/11/03 14:58:53;;;;;;;;;;;;;;;;;;5078267;28;898;-83
2022/11/03 15:01:20;;;;;;;;;;;;;;;;;;5077387;28;1151;-81
2022/11/03 15:03:46;;;;;;;;;;;;;;;;;;5077852;28;869;-81
2022/11/03 15:06:13;;;;;;;;;;;;;;;;;;5078575;28;1378;-83
2022/11/03 15:08:40;;;;;;;;;;;;;;;;;;5078274;28;1107;-82
2022/11/03 15:11:07;;;;;;;;;;;;;;;;;;5078286;28;989;-83
2022/11/03 15:13:33;;;;;;;;;;;;;;;;;;5084559;28;1886;-79
2022/11/03 15:15:59;;;;;;;;;;;;;;;;;;5087614;28;1321;-83
2022/11/03 15:18:26;;;;;;;;;;;;;;;;;;5069760;28;1183;-82
2022/11/03 15:20:53;;;;;;;;;;;;;;;;;;5080396;28;1005;-83
2022/11/03 15:23:20;;;;;;;;;;;;;;;;;;5078409;28;985;-83
2022/11/03 15:25:46;;;;;;;;;;;;;;;;;;5081205;28;1379;-82
2022/11/03 15:28:13;;;;;;;;;;;;;;;;;;5093506;28;1103;-82
2022/11/03 15:30:39;;;;;;;;;;;;;;;;;;5084753;28;1107;-83
2022/11/03 15:33:05;;;;;;;;;;;;;;;;;;5076693;28;827;-82
2022/11/03 15:35:31;;;;;;;;;;;;;;;;;;5077089;28;1922;-83
2022/11/03 15:37:58;;;;;;;;;;;;;;;;;;5076296;28;1470;-84
2022/11/03 15:40:25;;;;;;;;;;;;;;;;;;5058479;28;1315;-83
2022/11/03 15:42:52;;;;;;;;;;;;;;;;;;5076168;28;944;-82
2022/11/03 15:45:18;;;;;;;;;;;;;;;;;;5077091;28;1368;-83
2022/11/03 15:47:44;;;;;;;;;;;;;;;;;;5089923;22;1978;-75
2022/11/03 15:50:11;;;;;;;;;;;;;;;;;;5072701;28;1114;-77
2022/11/03 15:52:37;;;;;;;;;;;;;;;;;;5072192;28;1052;-76
2022/11/03 15:55:04;;;;;;;;;;;;;;;;;;5072876;28;1910;-77
2022/11/03 15:57:32;;;;;;;;;;;;;;;;;;5054388;28;1314;-77
2022/11/03 15:59:58;;;;;;;;;;;;;;;;;;5072908;28;1017;-76
2022/11/03 16:02:24;;;;;;;;;;;;;;;;;;5071967;28;905;-77
2022/11/03 16:04:51;;;;;;;;;;;;;;;;;;5072848;28;870;-77
2022/11/03 16:07:17;;;;;;;;;;;;;;;;;;5053800;28;1376;-77
2022/11/03 16:09:43;;;;;;;;;;;;;;;;;;5073184;28;1408;-77
2022/11/03 16:12:09;;;;;;;;;;;;;;;;;;5073397;28;941;-77
2022/11/03 16:14:37;;;;;;;;;;;;;;;;;;5072304;28;1910;-76
2022/11/03 16:17:04;;;;;;;;;;;;;;;;;;5054338;28;1488;-76
2022/11/03 16:19:30;;;;;;;;;;;;;;;;;;5072485;28;1008;-77
2022/11/03 16:21:56;;;;;;;;;;;;;;;;;;5072286;28;782;-77
2022/11/03 16:24:22;;;;;;;;;;;;;;;;;;5072456;28;1495;-77
2022/11/03 16:26:49;;;;;;;;;;;;;;;;;;5071795;28;1594;-77
2022/11/03 16:29:15;;;;;;;;;;;;;;;;;;5072324;28;1084;-77
2022/11/03 16:31:43;;;;;;;;;;;;;;;;;;5054207;28;758;-76
2022/11/03 16:34:09;;;;;;;;;;;;;;;;;;5072164;28;1914;-77
2022/11/03 16:36:36;;;;;;;;;;;;;;;;;;5071189;28;1363;-77
2022/11/03 16:39:02;;;;;;;;;;;;;;;;;;5055292;28;1269;-77
2022/11/03 16:41:28;;;;;;;;;;;;;;;;;;5071568;28;1064;-77
2022/11/03 16:43:54;;;;;;;;;;;;;;;;;;5053912;28;1357;-77
2022/11/03 16:46:20;;;;;;;;;;;;;;;;;;5071341;28;1652;-77
2022/11/03 16:48:48;;;;;;;;;;;;;;;;;;5072379;28;1107;-77
2022/11/03 16:51:14;;;;;;;;;;;;;;;;;;5072884;28;1107;-77
2022/11/03 16:53:40;;;;;;;;;;;;;;;;;;5072938;28;1914;-78
2022/11/03 16:56:07;;;;;;;;;;;;;;;;;;5073111;28;1333;-77
2022/11/03 16:58:34;;;;;;;;;;;;;;;;;;5073730;28;1136;-78
2022/11/03 17:01:00;;;;;;;;;;;;;;;;;;5073931;28;850;-78
2022/11/03 17:03:26;;;;;;;;;;;;;;;;;;5072652;28;1099;-78
2022/11/03 17:05:54;;;;;;;;;;;;;;;;;;5077552;28;862;-77
2022/11/03 17:08:20;;;;;;;;;;;;;;;;;;5082458;28;973;-77
2022/11/03 17:10:46;;;;;;;;;;;;;;;;;;5081920;28;1048;-78
2022/11/03 17:13:12;;;;;;;;;;;;;;;;;;5078151;28;1032;-78
2022/11/03 17:15:38;;;;;;;;;;;;;;;;;;5082724;28;1899;-77
2022/11/03 17:18:05;;;;;;;;;;;;;;;;;;5084068;28;1366;-78
2022/11/03 17:20:31;;;;;;;;;;;;;;;;;;5081979;28;949;-78
2022/11/03 17:22:58;;;;;;;;;;;;;;;;;;5059023;28;1111;-78
2022/11/03 17:25:25;;;;;;;;;;;;;;;;;;5077917;28;927;-78
2022/11/03 17:27:51;;;;;;;;;;;;;;;;;;5059747;28;1416;-78